Allendale, WY

10:03 PM MDT on September 14, 2014 (GMT -0600)
North of Casper, WY | Change Station
CLOSE
Current Station
Personal Weather Station
Location: Bar Nunn, WY
Elevation: 5276 ft
Nearby Weather Stations

Elev 5276 ft 42.91 °N, 106.35 °W | Updated 1 minute ago

Clear
Clear
50.1 °F
Feels Like 50.1 °F
N
0.0
Wind Variable Wind from NNE
Gusts 0.0 mph

Today
High -- | Low -- °F
--% Chance of Precip.
Yesterday
High -- | Low -- °F
Precip. -- in
6:43 AM 7:16 PM
Waning Gibbous, 59% visible
Pressure 30.13 in
Visibility 10.0 miles
Clouds Clear
Dew Point 39 °F
Humidity 65%
Rainfall 0.00 in
Snow Depth 0 in , 0 in , 0 in
UV 0 out of 12
Pollen 4.90 out of 12
Air Quality Not available.
Flu Activity Not available.
METAR KCPR 150353Z AUTO 03010KT 10SM CLR 11/03 A3020 RMK AO2 SLP201 T01060033

More Conditions Fewer Conditions

Pressure 30.13 in
Visibility 10.0 miles
Clouds Clear
Dew Point 39 °F
Humidity 65%
Rainfall 0.00 in
Snow Depth 0 in , 0 in , 0 in
UV 0 out of 12
Pollen 4.90 out of 12
Air Quality Not available.
Flu Activity Not available.
METAR KCPR 150353Z AUTO 03010KT 10SM CLR 11/03 A3020 RMK AO2 SLP201 T01060033

More Conditions Fewer Conditions

10-Day Weather Forecast

Almanac

Astronomy

Sep. 14, 2014 Rise Set
Actual Time 6:43 AM MDT 7:16 PM MDT
Civil Twilight 6:15 AM MDT 7:45 PM MDT
Nautical Twilight 5:41 AM MDT 8:18 PM MDT
Astronomical Twilight 5:06 AM MDT 8:53 PM MDT
Moon 11:03 PM MDT (9/14) 1:00 PM MDT (9/14)
Length of Visible Light 13h 29m
Length of Day
12h 32m
Tomorrow will be 2m 52s shorter.
Waning Gibbous, 59% of the Moon is Illuminated
Sep 15
Waning Gibbous
Sep 15
Last Quarter
Sep 24
New
Oct 1
First Quarter
Oct 8
Full

Today's Extremes

State Highs State Lows

Community

WunderPhotos

Upload Photos

1,753,398 photos uploaded!

Nearby

Snow Depth

Station Depth Elevation
Phillips Bench 0 in 8200 ft
Loomis Park 0 in 8240 ft
Spring Creek Divide 0 in 9000 ft
Big Goose 1 in 7990 ft
Marquette 1 in 8760 ft

Earthquake Activity

City Distance Mag. Time & Date
No recent earthquake activity has been reported nearby.
Minimum magnitude displayed is 2.5.

Coastal Water Temperatures

Place Temperature
No Stations Reporting

Nearby Weather Stations